Time;durP1;ratioP1;P1;durP2;ratioP2;P2;SDS_P1;SDS_P2;PMS_P1;PMS_P2;Temp;Humidity;BMP_temperature;BMP_pressure;BME280_temperature;BME280_humidity;BME280_pressure;Samples;Min_cycle;Max_cycle;Signal;HPM_P1;HPM_P2
2022/01/04 00:00:05;;;;;;;12.73;7.10;;;;;;;-145.18;100.00;47449.63;4987982;28;20319;-75
2022/01/04 00:02:31;;;;;;;18.13;10.17;;;;;;;-145.18;100.00;47441.81;4987756;28;20294;-75
2022/01/04 00:04:56;;;;;;;22.33;11.03;;;;;;;-145.18;100.00;47441.81;4987841;28;20288;-76
2022/01/04 00:07:22;;;;;;;23.33;11.23;;;;;;;-145.18;100.00;47430.09;4987938;28;20042;-76
2022/01/04 00:09:49;;;;;;;20.60;10.53;;;;;;;-145.18;100.00;47441.81;4988494;28;20057;-76
2022/01/04 00:14:59;;;;;;;22.00;10.73;;;;;;;-145.18;100.00;47434.00;4983708;28;20735;-76
2022/01/04 00:17:25;;;;;;;16.10;8.73;;;;;;;-145.18;100.00;47435.94;4987868;28;20256;-76
2022/01/04 00:19:50;;;;;;;21.07;11.73;;;;;;;-145.18;100.00;47447.66;4987896;28;20034;-76
2022/01/04 00:22:16;;;;;;;18.80;11.60;;;;;;;-145.18;100.00;47428.13;4987495;28;20045;-76
2022/01/04 00:24:41;;;;;;;20.00;10.60;;;;;;;-145.18;100.00;47455.47;4986550;28;20046;-76
2022/01/04 00:27:06;;;;;;;17.23;9.47;;;;;;;-145.18;100.00;47432.03;4988441;28;20574;-76
2022/01/04 00:29:32;;;;;;;17.60;11.17;;;;;;;-145.18;100.00;47457.44;4987933;28;20045;-76
2022/01/04 00:31:57;;;;;;;20.70;12.07;;;;;;;-145.18;100.00;47447.66;4987476;28;20042;-76
2022/01/04 00:34:23;;;;;;;23.83;12.00;;;;;;;-145.18;100.00;47453.53;4987767;28;20066;-76
2022/01/04 00:36:48;;;;;;;19.87;12.23;;;;;;;-145.18;100.00;47453.53;4986877;28;20030;-76
2022/01/04 00:39:14;;;;;;;20.73;11.63;;;;;;;-145.18;100.00;47435.94;4987589;28;20080;-77
2022/01/04 00:41:39;;;;;;;25.37;12.97;;;;;;;-145.18;100.00;47449.63;4988069;28;20121;-76
2022/01/04 00:44:05;;;;;;;24.10;13.33;;;;;;;-145.18;100.00;47441.81;4987899;28;20046;-76
2022/01/04 00:46:30;;;;;;;22.13;13.70;;;;;;;-145.18;100.00;47459.41;4987289;28;20455;-76
2022/01/04 00:49:11;;;;;;;22.33;11.97;;;;;;;-145.18;100.00;47457.44;4987179;28;20380;-75
2022/01/04 00:51:51;;;;;;;25.47;13.20;;;;;;;-145.18;100.00;47426.19;4987377;28;20038;-76
2022/01/04 00:54:17;;;;;;;23.00;12.83;;;;;;;-145.18;100.00;47441.81;4987919;28;20295;-76
2022/01/04 00:56:44;;;;;;;20.07;13.37;;;;;;;-145.18;100.00;47457.44;4988665;28;20714;-76
2022/01/04 00:59:09;;;;;;;20.43;13.03;;;;;;;-145.18;100.00;47443.75;4990122;28;20085;-76
2022/01/04 01:01:36;;;;;;;21.80;13.93;;;;;;;-145.18;100.00;47445.72;4991114;28;20320;-76
2022/01/04 01:04:03;;;;;;;18.43;13.50;;;;;;;-145.18;100.00;47443.75;4991490;28;20543;-77
2022/01/04 01:06:28;;;;;;;25.10;14.73;;;;;;;-145.18;100.00;47455.47;4990996;28;20322;-75
2022/01/04 01:08:54;;;;;;;17.23;12.93;;;;;;;-145.18;100.00;47447.66;4991486;28;20276;-75
2022/01/04 01:11:20;;;;;;;25.03;13.07;;;;;;;-145.18;100.00;47445.72;4990893;28;20430;-75
2022/01/04 01:13:46;;;;;;;25.93;12.93;;;;;;;-145.18;100.00;47434.00;4990566;28;20038;-76
2022/01/04 01:16:12;;;;;;;22.43;13.97;;;;;;;-145.18;100.00;47457.44;4989797;28;20280;-76
2022/01/04 01:18:37;;;;;;;25.57;13.93;;;;;;;-145.18;100.00;47445.72;4990939;28;20315;-76
2022/01/04 01:21:05;;;;;;;21.93;12.70;;;;;;;-145.18;100.00;47457.44;4991120;28;20069;-75
2022/01/04 01:23:31;;;;;;;18.03;10.97;;;;;;;-145.18;100.00;47451.56;4990745;28;20054;-76
2022/01/04 01:25:57;;;;;;;16.53;12.37;;;;;;;-145.18;100.00;47434.00;4991188;28;20748;-75
2022/01/04 01:28:23;;;;;;;19.97;13.53;;;;;;;-145.18;100.00;47449.63;4990967;28;20335;-75
2022/01/04 01:30:49;;;;;;;23.57;14.30;;;;;;;-145.18;100.00;47447.66;4990410;28;20085;-75
2022/01/04 01:33:15;;;;;;;18.80;11.57;;;;;;;-145.18;100.00;47455.47;4990504;28;20053;-76
2022/01/04 01:35:42;;;;;;;20.70;11.77;;;;;;;-145.18;100.00;47449.63;4990666;28;20276;-75
2022/01/04 01:38:08;;;;;;;16.27;12.30;;;;;;;-145.18;100.00;47451.56;4990631;28;20276;-76
2022/01/04 01:40:35;;;;;;;27.40;12.87;;;;;;;-145.18;100.00;47441.81;4990782;28;20280;-76
2022/01/04 01:43:00;;;;;;;17.87;12.50;;;;;;;-145.18;100.00;47457.44;4991041;28;20327;-76
2022/01/04 01:45:26;;;;;;;21.10;12.67;;;;;;;-145.18;100.00;47465.25;4989201;28;20284;-76
2022/01/04 01:47:52;;;;;;;26.70;12.77;;;;;;;-145.18;100.00;47441.81;4988833;28;20070;-76
2022/01/04 01:50:18;;;;;;;17.60;12.07;;;;;;;-145.18;100.00;47449.63;4990599;28;20488;-76
2022/01/04 01:52:47;;;;;;;20.07;12.00;;;;;;;-145.18;100.00;47447.66;4990189;28;20268;-76
2022/01/04 01:55:12;;;;;;;19.07;12.37;;;;;;;-145.18;100.00;47455.47;4989381;28;20304;-76
2022/01/04 01:57:38;;;;;;;18.00;13.10;;;;;;;-145.18;100.00;47457.44;4989088;28;20278;-76
2022/01/04 02:00:10;;;;;;;20.83;12.13;;;;;;;-145.18;100.00;47447.66;4989164;28;20593;-76
2022/01/04 02:02:36;;;;;;;20.90;11.93;;;;;;;-145.18;100.00;47455.47;4990088;28;20280;-77
2022/01/04 02:05:01;;;;;;;22.83;13.50;;;;;;;-145.18;100.00;47453.53;4992595;28;20275;-76
2022/01/04 02:07:27;;;;;;;25.90;12.90;;;;;;;-145.18;100.00;47482.84;5009120;28;20042;-77
2022/01/04 02:10:02;;;;;;;20.80;13.33;;;;;;;-145.18;100.00;47439.84;5009671;28;20379;-76
2022/01/04 02:12:30;;;;;;;17.13;12.90;;;;;;;-145.18;100.00;47453.53;5009657;28;20057;-76
2022/01/04 02:14:56;;;;;;;20.67;13.73;;;;;;;-145.18;100.00;47449.63;5008899;28;20042;-76
2022/01/04 02:17:22;;;;;;;28.23;13.80;;;;;;;-145.18;100.00;47443.75;5007866;28;20354;-76
2022/01/04 02:19:48;;;;;;;25.53;13.73;;;;;;;-145.18;100.00;47447.66;5009033;28;20363;-76
2022/01/04 02:22:13;;;;;;;27.73;14.90;;;;;;;-145.18;100.00;47426.19;5009691;28;20030;-75
2022/01/04 02:24:38;;;;;;;27.97;15.17;;;;;;;-145.18;100.00;47451.56;5009144;28;20510;-76
2022/01/04 02:27:04;;;;;;;22.93;14.60;;;;;;;-145.18;100.00;47441.81;5009081;28;20132;-76
2022/01/04 02:29:29;;;;;;;22.43;14.00;;;;;;;-145.18;100.00;47457.44;5009162;28;20038;-76
2022/01/04 02:31:55;;;;;;;22.90;14.87;;;;;;;-145.18;100.00;47451.56;5007395;28;20145;-75
2022/01/04 02:34:20;;;;;;;26.43;15.00;;;;;;;-145.18;100.00;47430.09;5009157;28;20454;-77
2022/01/04 02:36:46;;;;;;;25.90;15.27;;;;;;;-145.18;100.00;47455.47;5009557;28;20053;-76
2022/01/04 02:39:11;;;;;;;19.27;15.20;;;;;;;-145.18;100.00;47447.66;4990985;28;20511;-75
2022/01/04 02:41:37;;;;;;;25.10;15.13;;;;;;;-145.18;100.00;47441.81;5008971;28;20030;-75
2022/01/04 02:44:04;;;;;;;25.67;14.73;;;;;;;-145.18;100.00;47453.53;5007566;28;20026;-76
2022/01/04 02:46:29;;;;;;;19.03;12.40;;;;;;;-145.18;100.00;47461.34;5008833;28;20129;-76
2022/01/04 02:48:55;;;;;;;23.60;13.10;;;;;;;-145.18;100.00;47463.31;5008448;28;20351;-76
2022/01/04 02:51:20;;;;;;;23.50;13.47;;;;;;;-145.18;100.00;47437.91;5009575;28;20049;-75
2022/01/04 02:53:45;;;;;;;19.83;13.87;;;;;;;-145.18;100.00;47445.72;5008301;28;20029;-76
2022/01/04 02:56:13;;;;;;;20.40;12.70;;;;;;;-145.18;100.00;47441.81;5008651;28;20095;-75
2022/01/04 02:58:39;;;;;;;16.60;11.50;;;;;;;-145.18;100.00;47453.53;5008565;28;20088;-75
2022/01/04 03:01:04;;;;;;;16.53;11.37;;;;;;;-145.18;100.00;47451.56;5008831;28;20273;-76
2022/01/04 03:03:30;;;;;;;16.03;11.20;;;;;;;-145.18;100.00;47451.56;5008629;28;20061;-76
2022/01/04 03:05:56;;;;;;;18.43;11.60;;;;;;;-145.18;100.00;47434.00;5008716;28;20423;-76
2022/01/04 03:08:22;;;;;;;20.27;11.73;;;;;;;-145.18;100.00;47453.53;5023519;28;20260;-76
2022/01/04 03:10:47;;;;;;;18.63;11.63;;;;;;;-145.18;100.00;47453.53;5008281;28;20026;-76
2022/01/04 03:13:16;;;;;;;18.77;11.77;;;;;;;-145.18;100.00;47447.66;5008202;28;20038;-76
2022/01/04 03:15:41;;;;;;;15.57;10.47;;;;;;;-145.18;100.00;47453.53;5008003;28;20510;-76
2022/01/04 03:18:07;;;;;;;19.27;12.90;;;;;;;-145.18;100.00;47451.56;5008047;28;20337;-77
2022/01/04 03:20:32;;;;;;;20.67;11.97;;;;;;;-145.18;100.00;47465.25;5007604;28;20442;-76
2022/01/04 03:22:58;;;;;;;18.37;12.60;;;;;;;-145.18;100.00;47455.47;5008339;28;20050;-75
2022/01/04 03:25:23;;;;;;;22.37;13.43;;;;;;;-145.18;100.00;47457.44;5008468;28;20034;-76
2022/01/04 03:27:48;;;;;;;21.13;12.57;;;;;;;-145.18;100.00;47443.75;5007973;28;20053;-75
2022/01/04 03:30:14;;;;;;;23.13;13.30;;;;;;;-145.18;100.00;47432.03;5008385;28;20073;-75
2022/01/04 03:32:40;;;;;;;20.43;12.80;;;;;;;-145.18;100.00;47476.97;5006399;28;20042;-76
2022/01/04 03:35:06;;;;;;;22.17;12.97;;;;;;;-145.18;100.00;47449.63;5008251;28;20272;-76
2022/01/04 03:37:31;;;;;;;19.20;12.37;;;;;;;-145.18;100.00;47437.91;5008225;28;20038;-76
2022/01/04 03:39:57;;;;;;;17.57;11.60;;;;;;;-145.18;100.00;47455.47;5007921;28;20050;-76
2022/01/04 03:42:22;;;;;;;18.43;11.53;;;;;;;-145.18;100.00;47471.13;5006403;28;20175;-76
2022/01/04 03:44:47;;;;;;;18.43;10.43;;;;;;;-145.18;100.00;47461.34;5006351;28;20037;-76
2022/01/04 03:47:13;;;;;;;20.93;10.73;;;;;;;-145.18;100.00;47465.25;5007714;28;20553;-76
2022/01/04 03:49:38;;;;;;;14.30;9.40;;;;;;;-145.18;100.00;47465.25;5006393;28;20094;-76
2022/01/04 03:52:04;;;;;;;16.33;8.97;;;;;;;-145.18;100.00;47441.81;5008342;28;20042;-76
2022/01/04 03:54:30;;;;;;;14.57;8.20;;;;;;;-145.18;100.00;47435.94;5007796;28;20044;-76
2022/01/04 03:56:55;;;;;;;19.87;8.83;;;;;;;-145.18;100.00;47445.72;5007079;28;20038;-76
2022/01/04 03:59:20;;;;;;;13.50;7.50;;;;;;;-145.18;100.00;47445.72;5022909;28;20037;-76
2022/01/04 04:01:47;;;;;;;16.93;8.27;;;;;;;-145.18;100.00;47482.84;5007346;28;20113;-76
2022/01/04 04:04:13;;;;;;;10.90;6.53;;;;;;;-145.18;100.00;47457.44;5007844;28;20049;-76
2022/01/04 04:06:39;;;;;;;11.50;7.10;;;;;;;-145.18;100.00;47465.25;5007955;28;20267;-76
2022/01/04 04:09:04;;;;;;;10.83;7.03;;;;;;;-145.18;100.00;47455.47;5007511;28;20505;-76
2022/01/04 04:11:30;;;;;;;13.47;7.20;;;;;;;-145.18;100.00;47465.25;5006808;28;20566;-76
2022/01/04 04:13:55;;;;;;;13.23;6.77;;;;;;;-145.18;100.00;47469.16;5007093;28;20250;-76
2022/01/04 04:16:21;;;;;;;13.73;6.83;;;;;;;-145.18;100.00;47461.34;5007551;28;20053;-76
2022/01/04 04:18:46;;;;;;;11.73;7.17;;;;;;;-145.18;100.00;47439.84;5007092;28;20038;-76
2022/01/04 04:21:12;;;;;;;11.67;7.13;;;;;;;-145.18;100.00;47453.53;5008029;28;20049;-76
2022/01/04 04:23:37;;;;;;;8.53;6.07;;;;;;;-145.18;100.00;47463.31;5007046;28;20046;-76
2022/01/04 04:26:04;;;;;;;17.47;6.90;;;;;;;-145.18;100.00;47465.25;5007558;28;20045;-76
2022/01/04 04:28:29;;;;;;;12.17;7.83;;;;;;;-145.18;100.00;47486.75;5007177;28;20041;-76
2022/01/04 04:30:56;;;;;;;13.53;7.90;;;;;;;-145.18;100.00;47478.94;5009828;28;20293;-76
2022/01/04 04:33:22;;;;;;;13.27;7.73;;;;;;;-145.18;100.00;47459.41;5026768;28;20050;-76
2022/01/04 04:35:48;;;;;;;16.10;10.03;;;;;;;-145.18;100.00;47471.13;5012240;28;20286;-76
2022/01/04 04:38:13;;;;;;;16.20;10.07;;;;;;;-145.18;100.00;47455.47;5011264;28;20283;-76
2022/01/04 04:40:39;;;;;;;18.10;9.57;;;;;;;-145.18;100.00;47478.94;5000976;28;20042;-77
2022/01/04 04:43:05;;;;;;;17.50;10.10;;;;;;;-145.18;100.00;47469.16;4991435;28;20042;-75
2022/01/04 04:45:31;;;;;;;20.27;10.57;;;;;;;-145.18;100.00;47480.88;4991715;28;20034;-75
2022/01/04 04:47:56;;;;;;;19.40;11.37;;;;;;;-145.18;100.00;47465.25;4991048;28;20276;-75
2022/01/04 04:50:22;;;;;;;20.97;12.33;;;;;;;-145.18;100.00;47469.16;4992617;28;20052;-75
2022/01/04 04:52:47;;;;;;;28.30;14.03;;;;;;;-145.18;100.00;47461.34;4991171;28;20139;-74
2022/01/04 04:55:12;;;;;;;24.10;14.20;;;;;;;-145.18;100.00;47475.03;4991364;28;20112;-74
2022/01/04 04:57:39;;;;;;;22.30;14.20;;;;;;;-145.18;100.00;47455.47;4991011;28;20042;-74
2022/01/04 05:00:06;;;;;;;23.77;14.33;;;;;;;-145.18;100.00;47478.94;4991296;28;20046;-74
2022/01/04 05:02:32;;;;;;;24.23;15.47;;;;;;;-145.18;100.00;47476.97;4990681;28;20372;-74
2022/01/04 05:04:57;;;;;;;24.83;15.63;;;;;;;-145.18;100.00;47435.94;4991168;28;21099;-75
2022/01/04 05:07:23;;;;;;;30.17;16.40;;;;;;;-145.18;100.00;47476.97;4991681;28;20092;-74
2022/01/04 05:09:48;;;;;;;26.93;16.13;;;;;;;-145.18;100.00;47490.66;4989870;28;20094;-74
2022/01/04 05:12:13;;;;;;;31.97;17.90;;;;;;;-145.18;100.00;47465.25;4990747;28;20502;-74
2022/01/04 05:14:44;;;;;;;27.23;16.27;;;;;;;-145.18;100.00;47469.16;4990228;28;20137;-75
2022/01/04 05:17:10;;;;;;;31.50;18.33;;;;;;;-145.18;100.00;47469.16;4990843;28;20066;-74
2022/01/04 05:19:36;;;;;;;29.87;16.67;;;;;;;-145.18;100.00;47473.06;5005813;28;20307;-74
2022/01/04 05:22:01;;;;;;;29.93;16.53;;;;;;;-145.18;100.00;47476.97;4990534;28;20403;-75
2022/01/04 05:24:27;;;;;;;32.43;17.10;;;;;;;-145.18;100.00;47471.13;4991194;28;20042;-74
2022/01/04 05:26:52;;;;;;;31.73;17.50;;;;;;;-145.18;100.00;47469.16;4990591;28;20521;-75
2022/01/04 05:29:17;;;;;;;30.47;18.23;;;;;;;-145.18;100.00;47480.88;4990621;28;20088;-74
2022/01/04 05:31:43;;;;;;;28.43;18.83;;;;;;;-145.18;100.00;47480.88;4990504;28;20042;-74
2022/01/04 05:34:08;;;;;;;37.97;18.47;;;;;;;-145.18;100.00;47488.69;4990160;28;20487;-74
2022/01/04 05:36:35;;;;;;;34.60;16.90;;;;;;;-145.18;100.00;47492.59;4990435;28;20129;-75
2022/01/04 05:39:00;;;;;;;22.53;12.50;;;;;;;-145.18;100.00;47494.56;4990767;28;20388;-74
2022/01/04 05:41:26;;;;;;;36.70;18.37;;;;;;;-145.18;100.00;47484.78;4990359;28;20335;-74
2022/01/04 05:43:51;;;;;;;31.60;17.60;;;;;;;-145.18;100.00;47484.78;4989652;28;20460;-74
2022/01/04 05:46:17;;;;;;;30.67;14.30;;;;;;;-145.18;100.00;47461.34;4989951;28;20042;-74
2022/01/04 05:48:42;;;;;;;32.00;17.13;;;;;;;-145.18;100.00;47465.25;4989462;28;20047;-74
2022/01/04 05:51:08;;;;;;;36.00;17.83;;;;;;;-145.18;100.00;47490.66;4990181;28;20035;-74
2022/01/04 05:53:33;;;;;;;34.83;17.60;;;;;;;-145.18;100.00;47457.44;4990357;28;20169;-74
2022/01/04 05:55:59;;;;;;;28.07;16.67;;;;;;;-145.18;100.00;47461.34;4989582;28;20073;-74
2022/01/04 05:58:25;;;;;;;29.87;17.07;;;;;;;-145.18;100.00;47476.97;4989364;28;20046;-75
2022/01/04 06:00:50;;;;;;;34.23;19.13;;;;;;;-145.18;100.00;47480.88;4989026;28;20047;-75
2022/01/04 06:03:15;;;;;;;35.33;14.90;;;;;;;-145.18;100.00;47480.88;4989442;28;20034;-74
2022/01/04 06:05:41;;;;;;;27.03;16.80;;;;;;;-145.18;100.00;47461.34;4990024;28;20050;-76
2022/01/04 06:08:06;;;;;;;30.67;16.37;;;;;;;-145.18;100.00;47467.22;4990480;28;20053;-74
2022/01/04 06:10:38;;;;;;;26.63;16.97;;;;;;;-145.18;100.00;47465.25;4990184;28;20418;-74
2022/01/04 06:15:29;;;;;;;31.73;17.20;;;;;;;-145.18;100.00;47465.25;4988184;28;20284;-75
2022/01/04 06:17:54;;;;;;;31.47;16.30;;;;;;;-145.18;100.00;47469.16;4989048;28;20097;-76
2022/01/04 06:20:22;;;;;;;29.37;15.30;;;;;;;-145.18;100.00;47486.75;4989959;28;20041;-76
2022/01/04 06:22:48;;;;;;;29.93;16.83;;;;;;;-145.18;100.00;47461.34;4989466;28;20454;-75
2022/01/04 06:25:16;;;;;;;29.53;15.53;;;;;;;-145.18;100.00;47478.94;4990679;28;20326;-75
2022/01/04 06:27:42;;;;;;;27.90;16.57;;;;;;;-145.18;100.00;47480.88;4989298;28;20768;-75
2022/01/04 06:30:08;;;;;;;29.70;16.70;;;;;;;-145.18;100.00;47486.75;4989694;28;20280;-75
2022/01/04 06:32:36;;;;;;;28.63;16.23;;;;;;;-145.18;100.00;47473.06;4989472;28;20367;-75
2022/01/04 06:35:02;;;;;;;25.03;13.87;;;;;;;-145.18;100.00;47475.03;4988983;28;20310;-74
2022/01/04 06:37:27;;;;;;;29.47;16.00;;;;;;;-145.18;100.00;47488.69;4989183;28;20308;-75
2022/01/04 06:39:53;;;;;;;28.13;16.87;;;;;;;-145.18;100.00;47459.41;4989311;28;20773;-76
2022/01/04 06:42:18;;;;;;;28.33;16.80;;;;;;;-145.18;100.00;47469.16;4989519;28;20479;-75
2022/01/04 06:44:43;;;;;;;30.67;17.67;;;;;;;-145.18;100.00;47457.44;4983930;28;20108;-74
2022/01/04 06:47:10;;;;;;;33.53;16.57;;;;;;;-145.18;100.00;47471.13;4982751;28;20078;-74
2022/01/04 06:49:37;;;;;;;26.80;16.63;;;;;;;-145.18;100.00;47478.94;4985617;28;20125;-74
2022/01/04 06:52:03;;;;;;;25.13;16.20;;;;;;;-145.18;100.00;47461.34;4988976;28;20291;-75
2022/01/04 06:54:29;;;;;;;28.73;15.93;;;;;;;-145.18;100.00;47465.25;4992910;28;20280;-75
2022/01/04 06:56:54;;;;;;;26.47;16.50;;;;;;;-145.18;100.00;47465.25;4988440;28;20280;-75
2022/01/04 06:59:19;;;;;;;30.40;14.20;;;;;;;-145.18;100.00;47465.25;4987378;28;20038;-74
2022/01/04 07:01:45;;;;;;;30.60;15.27;;;;;;;-145.18;100.00;47473.06;4988473;28;20526;-74
2022/01/04 07:04:11;;;;;;;25.70;14.50;;;;;;;-145.18;100.00;47461.34;5019708;28;20389;-74
2022/01/04 07:06:36;;;;;;;27.93;16.20;;;;;;;-145.18;100.00;47478.94;4985776;28;20128;-74
2022/01/04 07:09:04;;;;;;;25.83;15.07;;;;;;;-145.18;100.00;47467.22;4988157;28;20050;-75
2022/01/04 07:11:29;;;;;;;27.80;14.53;;;;;;;-145.18;100.00;47469.16;4988116;28;20070;-74
2022/01/04 07:13:55;;;;;;;23.17;13.93;;;;;;;-145.18;100.00;47463.31;4988569;28;20303;-74
2022/01/04 07:16:20;;;;;;;23.37;15.90;;;;;;;-145.18;100.00;47445.72;4988986;28;20052;-74
2022/01/04 07:18:48;;;;;;;23.30;14.23;;;;;;;-145.18;100.00;47476.97;4986058;28;20121;-74
2022/01/04 07:21:17;;;;;;;25.07;13.73;;;;;;;-145.18;100.00;47465.25;4977271;28;20311;-74
2022/01/04 07:23:44;;;;;;;24.80;14.83;;;;;;;-145.18;100.00;47469.16;4985891;28;20282;-74
2022/01/04 07:26:11;;;;;;;27.37;15.27;;;;;;;-145.18;100.00;47461.34;4988502;28;20287;-73
2022/01/04 07:28:39;;;;;;;25.67;15.03;;;;;;;-145.18;100.00;47476.97;4987609;28;20847;-74
2022/01/04 07:31:05;;;;;;;23.20;14.03;;;;;;;-145.18;100.00;47473.06;4988741;28;20339;-74
2022/01/04 07:33:30;;;;;;;26.53;15.77;;;;;;;-145.18;100.00;47471.13;4988331;28;20398;-74
2022/01/04 07:35:56;;;;;;;22.33;14.07;;;;;;;-145.18;100.00;47476.97;4983742;28;20046;-74
2022/01/04 07:38:21;;;;;;;31.00;16.27;;;;;;;-145.18;100.00;47471.13;4986589;28;20054;-74
2022/01/04 07:40:46;;;;;;;27.50;15.10;;;;;;;-145.18;100.00;47476.97;4983862;28;20543;-74
2022/01/04 07:43:12;;;;;;;29.17;15.23;;;;;;;-145.18;100.00;47471.13;4983259;28;20088;-74
2022/01/04 07:45:38;;;;;;;30.03;15.93;;;;;;;-145.18;100.00;47478.94;4983453;28;20045;-75
2022/01/04 07:48:06;;;;;;;26.23;14.77;;;;;;;-145.18;100.00;47480.88;4985710;28;20046;-74
2022/01/04 07:50:31;;;;;;;31.23;16.43;;;;;;;-145.18;100.00;47476.97;4986678;28;20065;-74
2022/01/04 07:52:57;;;;;;;25.73;15.30;;;;;;;-145.18;100.00;47478.94;4985079;28;20276;-74
2022/01/04 07:55:22;;;;;;;25.90;15.67;;;;;;;-145.18;100.00;47455.47;4985477;28;20042;-74
2022/01/04 07:57:48;;;;;;;33.53;15.10;;;;;;;-145.18;100.00;47457.44;4985403;28;20093;-74
2022/01/04 08:00:14;;;;;;;26.70;14.63;;;;;;;-145.18;100.00;47457.44;4984484;28;20046;-73
2022/01/04 08:02:43;;;;;;;24.23;15.10;;;;;;;-145.18;100.00;47480.88;4985751;28;20046;-74
2022/01/04 08:05:10;;;;;;;32.73;17.83;;;;;;;-145.18;100.00;47486.75;4984534;28;20282;-74
2022/01/04 08:07:35;;;;;;;30.93;16.67;;;;;;;-145.18;100.00;47484.78;4985718;28;20380;-74
2022/01/04 08:10:01;;;;;;;28.20;15.37;;;;;;;-145.18;100.00;47469.16;4985603;28;20359;-74
2022/01/04 08:12:26;;;;;;;36.10;15.53;;;;;;;-145.18;100.00;47480.88;4984406;28;20038;-74
2022/01/04 08:14:52;;;;;;;30.57;16.43;;;;;;;-145.18;100.00;47476.97;4984631;28;20042;-74
2022/01/04 08:17:18;;;;;;;30.30;16.03;;;;;;;-145.18;100.00;47461.34;4984927;28;20042;-75
2022/01/04 08:19:44;;;;;;;30.27;16.67;;;;;;;-145.18;100.00;47459.41;4985735;28;20703;-74
2022/01/04 08:22:09;;;;;;;32.40;16.87;;;;;;;-145.18;100.00;47455.47;4975214;28;20129;-74
2022/01/04 08:24:35;;;;;;;34.23;16.33;;;;;;;-145.18;100.00;47455.47;4983649;28;20134;-74
2022/01/04 08:27:00;;;;;;;25.83;15.00;;;;;;;-145.18;100.00;47461.34;4984136;28;20057;-74
2022/01/04 08:29:26;;;;;;;29.23;16.20;;;;;;;-145.18;100.00;47463.31;4982630;28;20500;-74
2022/01/04 08:31:51;;;;;;;27.40;16.70;;;;;;;-145.18;100.00;47449.63;4983410;28;20053;-75
2022/01/04 08:34:17;;;;;;;33.97;17.57;;;;;;;-145.18;100.00;47453.53;4979962;28;20105;-74
2022/01/04 08:36:42;;;;;;;27.40;15.70;;;;;;;-145.18;100.00;47486.75;4971366;28;20496;-74
2022/01/04 08:39:14;;;;;;;31.47;17.40;;;;;;;-145.18;100.00;47457.44;4977362;28;20129;-74
2022/01/04 08:41:45;;;;;;;34.30;16.77;;;;;;;-145.18;100.00;47457.44;4993663;28;20068;-74
2022/01/04 08:44:11;;;;;;;35.43;17.63;;;;;;;-145.18;100.00;47465.25;4989819;28;20268;-74
2022/01/04 08:46:37;;;;;;;28.80;16.83;;;;;;;-145.18;100.00;47457.44;4986295;28;20320;-74
2022/01/04 08:49:07;;;;;;;31.77;17.47;;;;;;;-145.18;100.00;47459.41;4982131;28;20611;-74
2022/01/04 08:51:32;;;;;;;34.80;17.87;;;;;;;-145.18;100.00;47478.94;4985243;28;20265;-75
2022/01/04 08:53:58;;;;;;;26.53;15.70;;;;;;;-145.18;100.00;47476.97;4984595;28;20284;-75
2022/01/04 08:56:23;;;;;;;32.13;17.33;;;;;;;-145.18;100.00;47457.44;4986100;28;20042;-75
2022/01/04 08:58:48;;;;;;;36.47;19.33;;;;;;;-145.18;100.00;47475.03;4984414;28;20066;-76
2022/01/04 09:01:14;;;;;;;37.53;19.30;;;;;;;-145.18;100.00;47469.16;4981634;28;20074;-74
2022/01/04 09:03:40;;;;;;;40.13;19.23;;;;;;;-145.18;100.00;47490.66;4979902;28;20041;-74
2022/01/04 09:06:08;;;;;;;40.83;23.63;;;;;;;-145.18;100.00;47469.16;4981827;28;20517;-74
2022/01/04 09:08:33;;;;;;;36.83;19.37;;;;;;;-145.18;100.00;47441.81;4979062;28;20041;-75
2022/01/04 09:11:00;;;;;;;34.80;18.87;;;;;;;-145.18;100.00;47457.44;4970120;28;20283;-75
2022/01/04 09:13:32;;;;;;;32.53;16.03;;;;;;;-145.18;100.00;47476.97;4983896;28;20043;-75
2022/01/04 09:18:45;;;;;;;28.77;15.73;;;;;;;-145.18;100.00;47473.06;4992541;28;20280;-74
2022/01/04 09:21:14;;;;;;;36.72;18.52;;;;;;;-145.18;100.00;47480.88;4987734;28;21182;-74
2022/01/04 09:23:41;;;;;;;41.27;20.13;;;;;;;-145.18;100.00;47490.66;4995165;28;20054;-74
2022/01/04 09:26:07;;;;;;;44.83;20.77;;;;;;;-145.18;100.00;47453.53;4991899;28;20268;-73
2022/01/04 09:28:32;;;;;;;43.67;19.53;;;;;;;-145.18;100.00;47476.97;4988947;28;20713;-74
2022/01/04 09:30:58;;;;;;;34.73;18.27;;;;;;;-145.18;100.00;47482.84;4988033;28;20363;-74
2022/01/04 09:33:24;;;;;;;38.93;18.83;;;;;;;-145.18;100.00;47467.22;5016710;28;20046;-75
2022/01/04 09:35:49;;;;;;;25.77;13.50;;;;;;;-145.18;100.00;47482.84;4986377;28;20104;-74
2022/01/04 09:38:16;;;;;;;16.60;10.37;;;;;;;-145.18;100.00;47469.16;4986431;28;20066;-74
2022/01/04 09:40:42;;;;;;;14.23;7.97;;;;;;;-145.18;100.00;47488.69;4987596;28;20050;-73
2022/01/04 09:43:08;;;;;;;13.53;6.83;;;;;;;-145.18;100.00;47484.78;4986487;28;20272;-73
2022/01/04 09:45:34;;;;;;;13.87;7.97;;;;;;;-145.18;100.00;47471.13;4983339;28;20038;-73
2022/01/04 09:48:00;;;;;;;16.20;9.60;;;;;;;-145.18;100.00;47484.78;4984222;28;20795;-73
2022/01/04 09:50:25;;;;;;;19.57;12.63;;;;;;;-145.18;100.00;47486.75;4982607;28;20480;-74
2022/01/04 09:52:53;;;;;;;29.67;16.30;;;;;;;-145.18;100.00;47480.88;4985040;28;20403;-73
2022/01/04 09:55:18;;;;;;;31.17;15.83;;;;;;;-145.18;100.00;47482.84;4985479;28;20488;-73
2022/01/04 09:57:46;;;;;;;32.50;15.50;;;;;;;-145.18;100.00;47465.25;4987215;28;20283;-74
2022/01/04 10:00:17;;;;;;;34.20;16.37;;;;;;;-145.18;100.00;47457.44;4986554;28;20050;-73
2022/01/04 10:02:44;;;;;;;31.27;18.37;;;;;;;-145.18;100.00;47471.13;4987446;28;20287;-74
2022/01/04 10:05:16;;;;;;;28.20;15.27;;;;;;;-145.18;100.00;47473.06;4985937;28;20307;-74
2022/01/04 10:07:43;;;;;;;30.53;14.30;;;;;;;-145.18;100.00;47469.16;4987390;28;20284;-73
2022/01/04 10:10:14;;;;;;;30.30;16.30;;;;;;;-145.18;100.00;47478.94;4987280;28;20287;-74
2022/01/04 10:13:10;;;;;;;30.60;14.27;;;;;;;-145.18;100.00;47459.41;4987885;28;20257;-74
2022/01/04 10:15:44;;;;;;;24.77;11.15;;;;;;;-145.18;100.00;47490.66;4983198;28;20272;-73
2022/01/04 10:18:20;;;;;;;21.23;10.80;;;;;;;-145.18;100.00;47488.69;4987019;28;20038;-74
2022/01/04 10:20:52;;;;;;;24.30;11.90;;;;;;;-145.18;100.00;47478.94;4987277;28;20765;-74
2022/01/04 10:23:26;;;;;;;22.30;11.63;;;;;;;-145.18;100.00;47476.97;4967226;28;20287;-73
2022/01/04 10:26:00;;;;;;;24.37;12.43;;;;;;;-145.18;100.00;47475.03;4982209;28;20279;-73
2022/01/04 10:28:31;;;;;;;23.90;13.43;;;;;;;-145.18;100.00;47480.88;4986026;28;20852;-73
2022/01/04 10:31:03;;;;;;;22.90;13.67;;;;;;;-145.18;100.00;47473.06;4986933;28;20363;-73
2022/01/04 10:33:31;;;;;;;21.23;10.70;;;;;;;-145.18;100.00;47463.31;4986353;28;20288;-73
2022/01/04 10:35:59;;;;;;;18.53;10.77;;;;;;;-145.18;100.00;47476.97;4984821;28;20341;-74
2022/01/04 10:38:28;;;;;;;14.03;8.93;;;;;;;-145.18;100.00;47480.88;4986221;28;20284;-74
2022/01/04 10:41:21;;;;;;;12.37;5.10;;;;;;;-145.18;100.00;47488.69;4986650;28;20673;-74
2022/01/04 10:43:58;;;;;;;9.73;4.53;;;;;;;-145.18;100.00;47488.69;4987976;28;20334;-72
2022/01/04 10:46:38;;;;;;;4.37;2.13;;;;;;;-145.18;100.00;47498.47;4981492;28;20323;-72
2022/01/04 10:49:17;;;;;;;12.47;3.10;;;;;;;-145.18;100.00;47508.22;4985833;28;20376;-72
2022/01/04 10:51:43;;;;;;;10.00;1.77;;;;;;;-145.18;100.00;47500.41;4986805;28;20272;-71
2022/01/04 10:54:09;;;;;;;7.10;2.00;;;;;;;-145.18;100.00;47523.88;4985904;28;20272;-72
2022/01/04 10:56:40;;;;;;;6.67;2.60;;;;;;;-145.18;100.00;47500.41;4986513;28;20294;-72
2022/01/04 10:59:11;;;;;;;5.10;1.73;;;;;;;-145.18;100.00;47502.38;4984989;28;20065;-72